Time;durP1;ratioP1;P1;durP2;ratioP2;P2;SDS_P1;SDS_P2;PMS_P1;PMS_P2;Temp;Humidity;BMP_temperature;BMP_pressure;BME280_temperature;BME280_humidity;BME280_pressure;Samples;Min_cycle;Max_cycle;Signal;HPM_P1;HPM_P2
2023/05/27 00:02:14;;;;;;;6.07;1.83;;;;;;;;;;4954805;28;99968;-82
2023/05/27 00:04:40;;;;;;;6.35;1.70;;;;;;;;;;4949874;28;98642;-82
2023/05/27 00:07:08;;;;;;;5.15;1.63;;;;;;;;;;4949508;28;98653;-83
2023/05/27 00:09:35;;;;;;;5.43;1.65;;;;;;;;;;4949024;28;98794;-82
2023/05/27 00:12:01;;;;;;;5.32;1.58;;;;;;;;;;4947892;28;101570;-81
2023/05/27 00:14:28;;;;;;;3.92;1.65;;;;;;;;;;4952272;28;98583;-82
2023/05/27 00:16:55;;;;;;;5.10;1.73;;;;;;;;;;4947746;28;100143;-81
2023/05/27 00:19:23;;;;;;;5.05;1.73;;;;;;;;;;4948761;28;98493;-82
2023/05/27 00:21:52;;;;;;;4.75;1.67;;;;;;;;;;4947014;28;99071;-81
2023/05/27 00:24:20;;;;;;;5.07;1.65;;;;;;;;;;4947555;28;99181;-82
2023/05/27 00:26:46;;;;;;;4.25;1.45;;;;;;;;;;4947439;28;99001;-82
2023/05/27 00:29:13;;;;;;;7.43;1.70;;;;;;;;;;4949037;28;98735;-83
2023/05/27 00:31:40;;;;;;;4.90;1.60;;;;;;;;;;4946203;28;102037;-82
2023/05/27 00:34:06;;;;;;;4.38;1.70;;;;;;;;;;4947462;28;99092;-82
2023/05/27 00:36:33;;;;;;;3.65;1.40;;;;;;;;;;4949855;28;99690;-83
2023/05/27 00:39:00;;;;;;;5.05;1.58;;;;;;;;;;4946280;28;98784;-82
2023/05/27 00:41:26;;;;;;;4.35;1.50;;;;;;;;;;4948630;28;99320;-82
2023/05/27 00:43:53;;;;;;;5.90;1.80;;;;;;;;;;4947615;28;99139;-82
2023/05/27 00:46:20;;;;;;;5.85;1.70;;;;;;;;;;4946388;28;98537;-82
2023/05/27 00:48:47;;;;;;;4.93;1.45;;;;;;;;;;4945007;28;101560;-81
2023/05/27 00:51:14;;;;;;;4.55;1.40;;;;;;;;;;4938328;28;99198;-82
2023/05/27 00:53:42;;;;;;;5.65;1.77;;;;;;;;;;4949194;28;98177;-81
2023/05/27 00:56:09;;;;;;;5.05;1.60;;;;;;;;;;4946785;28;101025;-81
2023/05/27 00:58:36;;;;;;;4.75;1.73;;;;;;;;;;4951447;28;100231;-81
2023/05/27 01:01:04;;;;;;;6.20;1.70;;;;;;;;;;4948136;28;101667;-83
2023/05/27 01:03:34;;;;;;;4.75;1.67;;;;;;;;;;4943041;28;100254;-82
2023/05/27 01:06:04;;;;;;;6.20;1.55;;;;;;;;;;4946204;28;98555;-81
2023/05/27 01:09:00;;;;;;;6.30;1.65;;;;;;;;;;4946157;28;101387;-81
2023/05/27 01:11:31;;;;;;;5.78;2.00;;;;;;;;;;4944482;28;106588;-82
2023/05/27 01:14:00;;;;;;;5.13;1.45;;;;;;;;;;4946245;28;98581;-82
2023/05/27 01:16:27;;;;;;;5.20;1.88;;;;;;;;;;4947232;28;99001;-81
2023/05/27 01:18:59;;;;;;;4.00;1.70;;;;;;;;;;4948563;28;100313;-81
2023/05/27 01:21:28;;;;;;;3.67;1.33;;;;;;;;;;4951021;28;99037;-82
2023/05/27 01:24:02;;;;;;;5.65;1.50;;;;;;;;;;4946836;28;99169;-82
2023/05/27 01:26:29;;;;;;;4.60;1.52;;;;;;;;;;4944910;28;99305;-81
2023/05/27 01:28:55;;;;;;;5.85;1.60;;;;;;;;;;4929510;28;101188;-81
2023/05/27 01:31:26;;;;;;;4.78;1.40;;;;;;;;;;4945063;28;100283;-82
2023/05/27 01:33:56;;;;;;;6.05;1.55;;;;;;;;;;4947242;28;98644;-82
2023/05/27 01:36:26;;;;;;;4.40;1.50;;;;;;;;;;4943425;28;101631;-83
2023/05/27 01:38:55;;;;;;;5.03;1.50;;;;;;;;;;4930318;28;100923;-82
2023/05/27 01:41:22;;;;;;;3.55;1.42;;;;;;;;;;4949700;28;98579;-83
2023/05/27 01:43:49;;;;;;;5.32;1.58;;;;;;;;;;4948591;28;100951;-82
2023/05/27 01:46:15;;;;;;;5.15;1.50;;;;;;;;;;4938684;28;99343;-82
2023/05/27 01:48:43;;;;;;;5.13;1.50;;;;;;;;;;4944145;28;101836;-83
2023/05/27 01:51:09;;;;;;;4.50;1.38;;;;;;;;;;4946067;28;99988;-82
2023/05/27 01:53:38;;;;;;;5.88;1.55;;;;;;;;;;4945516;28;99485;-82
2023/05/27 01:56:05;;;;;;;3.92;1.40;;;;;;;;;;4949039;28;99303;-83
2023/05/27 01:58:32;;;;;;;5.25;1.60;;;;;;;;;;4934884;28;101572;-82
2023/05/27 02:00:59;;;;;;;3.63;1.40;;;;;;;;;;4945718;28;98959;-82
2023/05/27 02:03:26;;;;;;;6.07;1.60;;;;;;;;;;4967600;28;101767;-82
2023/05/27 02:05:53;;;;;;;3.58;1.40;;;;;;;;;;4963641;28;99111;-82
2023/05/27 02:08:20;;;;;;;4.63;1.33;;;;;;;;;;4956389;28;98808;-83
2023/05/27 02:10:47;;;;;;;4.40;1.30;;;;;;;;;;4964538;28;99155;-81
2023/05/27 02:13:13;;;;;;;4.10;1.27;;;;;;;;;;4941056;28;99336;-82
2023/05/27 02:15:40;;;;;;;4.75;1.35;;;;;;;;;;4944143;28;101672;-81
2023/05/27 02:18:07;;;;;;;4.10;1.50;;;;;;;;;;4944283;28;101688;-83
2023/05/27 02:20:35;;;;;;;5.57;1.70;;;;;;;;;;4944278;28;98776;-81
2023/05/27 02:23:04;;;;;;;7.05;1.67;;;;;;;;;;4946256;28;98778;-82
2023/05/27 02:25:31;;;;;;;3.42;1.40;;;;;;;;;;4947614;28;100318;-82
2023/05/27 02:27:57;;;;;;;3.35;1.30;;;;;;;;;;4944530;28;101656;-82
2023/05/27 02:30:24;;;;;;;4.95;1.50;;;;;;;;;;4944367;28;101876;-82
2023/05/27 02:32:50;;;;;;;4.93;1.50;;;;;;;;;;4945898;28;97909;-82
2023/05/27 02:35:17;;;;;;;4.05;1.40;;;;;;;;;;4950222;28;101411;-82
2023/05/27 02:37:44;;;;;;;3.50;1.40;;;;;;;;;;4954632;28;106006;-83
2023/05/27 02:40:11;;;;;;;4.05;1.50;;;;;;;;;;4943718;28;99348;-83
2023/05/27 02:42:37;;;;;;;4.13;1.38;;;;;;;;;;4952905;28;99959;-82
2023/05/27 02:45:04;;;;;;;4.80;1.48;;;;;;;;;;4951268;28;99111;-82
2023/05/27 02:47:31;;;;;;;5.55;2.03;;;;;;;;;;4954768;28;98824;-82
2023/05/27 02:49:57;;;;;;;4.03;1.65;;;;;;;;;;4963368;28;101734;-83
2023/05/27 02:52:24;;;;;;;5.47;1.60;;;;;;;;;;4948814;28;105970;-82
2023/05/27 02:54:50;;;;;;;4.63;1.50;;;;;;;;;;4949335;28;98695;-82
2023/05/27 02:57:18;;;;;;;5.22;1.50;;;;;;;;;;4963511;28;101084;-82
2023/05/27 02:59:45;;;;;;;4.50;1.60;;;;;;;;;;4965489;28;98530;-82
2023/05/27 03:02:12;;;;;;;5.88;1.40;;;;;;;;;;4963535;28;101913;-82
2023/05/27 03:04:39;;;;;;;5.43;1.40;;;;;;;;;;4963620;28;100396;-82
2023/05/27 03:07:06;;;;;;;4.95;1.40;;;;;;;;;;4963340;28;98623;-82
2023/05/27 03:09:33;;;;;;;4.20;1.58;;;;;;;;;;4957362;28;99998;-82
2023/05/27 03:11:59;;;;;;;4.30;1.52;;;;;;;;;;4965270;28;99093;-82
2023/05/27 03:14:26;;;;;;;3.28;1.30;;;;;;;;;;4948523;28;101480;-83
2023/05/27 03:16:53;;;;;;;6.15;1.65;;;;;;;;;;4943997;28;100118;-83
2023/05/27 03:19:20;;;;;;;4.80;1.70;;;;;;;;;;4944497;28;98567;-82
2023/05/27 03:21:47;;;;;;;3.85;1.30;;;;;;;;;;4947084;28;101287;-82
2023/05/27 03:24:16;;;;;;;4.55;1.50;;;;;;;;;;4931752;28;101959;-82
2023/05/27 03:26:43;;;;;;;4.57;1.42;;;;;;;;;;4922735;28;98689;-82
2023/05/27 03:29:10;;;;;;;4.85;1.40;;;;;;;;;;4943421;28;101454;-83
2023/05/27 03:31:37;;;;;;;5.13;1.50;;;;;;;;;;4946703;28;99871;-82
2023/05/27 03:34:07;;;;;;;3.83;1.55;;;;;;;;;;4943235;28;101498;-82
2023/05/27 03:36:37;;;;;;;4.60;1.35;;;;;;;;;;4926146;28;101473;-81
2023/05/27 03:39:04;;;;;;;4.57;1.50;;;;;;;;;;4937770;28;98647;-82
2023/05/27 03:41:33;;;;;;;4.07;1.35;;;;;;;;;;4943530;28;100377;-82
2023/05/27 03:43:59;;;;;;;6.45;1.55;;;;;;;;;;4943961;28;101266;-83
2023/05/27 03:46:26;;;;;;;4.70;1.40;;;;;;;;;;4945339;28;97881;-81
2023/05/27 03:48:52;;;;;;;4.30;1.33;;;;;;;;;;4944340;28;98649;-81
2023/05/27 03:51:20;;;;;;;4.57;1.60;;;;;;;;;;4944550;28;100356;-81
2023/05/27 03:53:46;;;;;;;;;;;;;;;;;;4946274;28;99314;-82
2023/05/27 03:56:13;;;;;;;5.20;1.40;;;;;;;;;;4945642;28;101365;-81
2023/05/27 03:58:39;;;;;;;5.93;1.30;;;;;;;;;;4950066;28;99120;-81
2023/05/27 04:01:06;;;;;;;6.05;1.55;;;;;;;;;;4942558;28;98952;-81
2023/05/27 04:03:33;;;;;;;5.13;1.50;;;;;;;;;;4942099;28;101480;-82
2023/05/27 04:06:00;;;;;;;5.45;1.65;;;;;;;;;;4942506;28;98674;-81
2023/05/27 04:08:27;;;;;;;4.50;1.40;;;;;;;;;;4942165;28;101631;-81
2023/05/27 04:10:57;;;;;;;3.90;1.52;;;;;;;;;;4943038;28;98360;-80
2023/05/27 04:13:24;;;;;;;5.25;1.50;;;;;;;;;;4947472;28;98534;-81
2023/05/27 04:15:51;;;;;;;5.10;1.58;;;;;;;;;;4942057;28;101077;-81
2023/05/27 04:18:18;;;;;;;4.15;1.50;;;;;;;;;;4944103;28;99721;-82
2023/05/27 04:20:46;;;;;;;3.70;1.40;;;;;;;;;;4943742;28;99520;-81
2023/05/27 04:23:14;;;;;;;3.63;1.35;;;;;;;;;;4943940;28;99068;-82
2023/05/27 04:25:40;;;;;;;4.72;1.40;;;;;;;;;;4944106;28;98684;-82
2023/05/27 04:28:09;;;;;;;4.68;1.40;;;;;;;;;;4942794;28;101181;-82
2023/05/27 04:30:40;;;;;;;3.42;1.30;;;;;;;;;;4944581;28;101461;-81
2023/05/27 04:33:30;;;;;;;4.43;1.25;;;;;;;;;;4946612;28;98834;-83
2023/05/27 04:35:56;;;;;;;3.65;1.35;;;;;;;;;;4948118;28;100016;-81
2023/05/27 04:38:26;;;;;;;3.97;1.30;;;;;;;;;;4945965;28;98688;-81
2023/05/27 04:40:58;;;;;;;4.85;1.60;;;;;;;;;;4945243;28;102322;-82
2023/05/27 04:43:48;;;;;;;5.78;1.60;;;;;;;;;;4944983;28;100812;-83
2023/05/27 04:46:17;;;;;;;4.70;1.73;;;;;;;;;;4946548;28;98714;-83
2023/05/27 04:48:46;;;;;;;3.92;1.45;;;;;;;;;;4938764;28;100289;-82
2023/05/27 04:51:15;;;;;;;4.70;1.38;;;;;;;;;;4946235;28;99129;-82
2023/05/27 04:53:42;;;;;;;3.50;1.30;;;;;;;;;;4949089;28;98620;-82
2023/05/27 04:56:10;;;;;;;4.45;1.55;;;;;;;;;;4947037;28;101713;-82
2023/05/27 04:58:39;;;;;;;5.95;1.63;;;;;;;;;;4948717;28;101795;-82
2023/05/27 05:01:06;;;;;;;5.35;1.40;;;;;;;;;;4947018;28;101615;-82
2023/05/27 05:03:50;;;;;;;5.65;1.50;;;;;;;;;;4946892;28;99131;-82
2023/05/27 05:06:22;;;;;;;4.10;1.42;;;;;;;;;;4945017;28;98571;-81
2023/05/27 05:08:49;;;;;;;4.25;1.35;;;;;;;;;;4944525;28;101221;-81
2023/05/27 05:11:16;;;;;;;4.57;1.60;;;;;;;;;;4944349;28;99938;-81
2023/05/27 05:13:43;;;;;;;5.95;1.63;;;;;;;;;;4944818;28;98718;-81
2023/05/27 05:16:09;;;;;;;3.90;1.40;;;;;;;;;;4945138;28;100150;-81
2023/05/27 05:18:36;;;;;;;4.55;1.38;;;;;;;;;;4944432;28;101388;-80
2023/05/27 05:21:03;;;;;;;5.00;1.55;;;;;;;;;;4948513;28;98653;-82
2023/05/27 05:23:39;;;;;;;3.88;1.35;;;;;;;;;;4944730;28;102409;-81
2023/05/27 05:26:06;;;;;;;4.80;1.42;;;;;;;;;;4941385;28;97803;-82
2023/05/27 05:28:37;;;;;;;6.18;1.55;;;;;;;;;;4964875;28;99970;-80
2023/05/27 05:31:05;;;;;;;3.33;1.27;;;;;;;;;;4964136;28;101680;-81
2023/05/27 05:33:32;;;;;;;5.93;1.50;;;;;;;;;;4963084;28;99249;-81
2023/05/27 05:35:59;;;;;;;4.75;1.60;;;;;;;;;;4944901;28;102427;-82
2023/05/27 05:38:33;;;;;;;4.35;1.45;;;;;;;;;;4944689;28;101514;-82
2023/05/27 05:41:00;;;;;;;4.00;1.60;;;;;;;;;;4943682;28;98671;-80
2023/05/27 05:43:28;;;;;;;5.07;1.23;;;;;;;;;;4947441;28;100101;-81
2023/05/27 05:45:54;;;;;;;5.68;1.48;;;;;;;;;;4946563;28;98946;-82
2023/05/27 05:48:21;;;;;;;4.65;1.50;;;;;;;;;;4945382;28;101713;-81
2023/05/27 05:50:48;;;;;;;3.85;1.40;;;;;;;;;;4945879;28;100750;-81
2023/05/27 05:53:15;;;;;;;4.13;1.10;;;;;;;;;;4944970;28;98539;-81
2023/05/27 05:55:44;;;;;;;4.78;1.50;;;;;;;;;;4944870;28;101861;-81
2023/05/27 05:58:10;;;;;;;4.68;1.60;;;;;;;;;;4956623;28;102258;-82
2023/05/27 06:00:37;;;;;;;3.20;1.20;;;;;;;;;;4963731;28;98677;-82
2023/05/27 06:03:28;;;;;;;4.75;1.48;;;;;;;;;;4948791;28;100918;-82
2023/05/27 06:05:58;;;;;;;6.43;1.48;;;;;;;;;;4966880;28;99152;-82
2023/05/27 06:08:25;;;;;;;3.42;1.50;;;;;;;;;;4933274;28;101406;-81
2023/05/27 06:11:00;;;;;;;4.00;1.35;;;;;;;;;;4948444;28;106841;-80
2023/05/27 06:13:30;;;;;;;5.20;1.67;;;;;;;;;;4945592;28;99048;-80
2023/05/27 06:15:58;;;;;;;4.22;1.30;;;;;;;;;;4969391;28;101101;-81
2023/05/27 06:18:24;;;;;;;5.20;1.30;;;;;;;;;;4948581;28;102550;-80
2023/05/27 06:20:51;;;;;;;4.18;1.50;;;;;;;;;;4943698;28;98525;-81
2023/05/27 06:23:20;;;;;;;5.63;1.42;;;;;;;;;;4946012;28;100107;-81
2023/05/27 06:26:06;;;;;;;4.25;1.30;;;;;;;;;;4958416;28;101524;-81
2023/05/27 06:28:43;;;;;;;3.90;1.40;;;;;;;;;;4956171;28;101863;-81
2023/05/27 06:31:13;;;;;;;4.03;1.38;;;;;;;;;;4979472;28;101449;-82
2023/05/27 06:33:43;;;;;;;4.55;1.40;;;;;;;;;;4960812;28;98603;-81
2023/05/27 06:36:10;;;;;;;4.20;1.50;;;;;;;;;;4945782;28;98991;-82
2023/05/27 06:38:39;;;;;;;4.55;1.40;;;;;;;;;;4946063;28;101951;-81
2023/05/27 06:41:07;;;;;;;3.95;1.30;;;;;;;;;;4954355;28;98073;-81
2023/05/27 06:43:37;;;;;;;4.90;1.33;;;;;;;;;;4963861;28;99655;-83
2023/05/27 06:46:33;;;;;;;5.07;1.50;;;;;;;;;;4962606;28;99836;-82
2023/05/27 06:49:07;;;;;;;2.53;1.20;;;;;;;;;;4951874;28;99944;-82
2023/05/27 06:51:34;;;;;;;5.43;1.40;;;;;;;;;;4960037;28;101739;-82
2023/05/27 06:54:01;;;;;;;3.42;1.30;;;;;;;;;;4963452;28;98577;-81
2023/05/27 06:56:33;;;;;;;4.63;1.50;;;;;;;;;;4955454;28;101349;-82
2023/05/27 06:59:00;;;;;;;5.28;1.30;;;;;;;;;;4952874;28;104557;-81
2023/05/27 07:01:26;;;;;;;4.55;1.40;;;;;;;;;;4969274;28;98733;-81
2023/05/27 07:03:59;;;;;;;4.57;1.42;;;;;;;;;;4952472;28;101378;-81
2023/05/27 07:06:38;;;;;;;4.15;1.38;;;;;;;;;;4962808;28;101361;-81
2023/05/27 07:09:04;;;;;;;3.60;1.42;;;;;;;;;;4960886;28;98756;-83
2023/05/27 07:11:33;;;;;;;4.22;1.30;;;;;;;;;;4964229;28;98911;-82
2023/05/27 07:14:04;;;;;;;4.28;1.30;;;;;;;;;;4943928;28;99805;-81
2023/05/27 07:16:32;;;;;;;5.18;1.50;;;;;;;;;;4943472;28;102639;-82
2023/05/27 07:18:59;;;;;;;8.07;1.60;;;;;;;;;;4943662;28;105919;-83
2023/05/27 07:21:29;;;;;;;6.88;1.90;;;;;;;;;;4958501;28;98937;-82
2023/05/27 07:24:02;;;;;;;6.43;1.60;;;;;;;;;;4955260;28;100375;-82
2023/05/27 07:26:32;;;;;;;5.03;1.45;;;;;;;;;;4957475;28;100257;-81
2023/05/27 07:29:00;;;;;;;6.63;1.60;;;;;;;;;;4962815;28;99351;-81
2023/05/27 07:31:40;;;;;;;5.63;1.50;;;;;;;;;;4963634;28;99970;-81
2023/05/27 07:34:13;;;;;;;5.22;1.63;;;;;;;;;;4965546;28;102302;-81
2023/05/27 07:36:40;;;;;;;4.40;1.50;;;;;;;;;;4961677;28;101663;-82
2023/05/27 07:39:07;;;;;;;3.80;1.40;;;;;;;;;;4959905;28;99742;-80
2023/05/27 07:41:33;;;;;;;4.93;1.60;;;;;;;;;;4963968;28;98923;-82
2023/05/27 07:44:02;;;;;;;7.65;1.88;;;;;;;;;;4963383;28;101436;-82
2023/05/27 07:46:30;;;;;;;4.32;1.23;;;;;;;;;;4965339;28;106561;-82
2023/05/27 07:48:56;;;;;;;;;;;;;;;;;;4973565;28;98864;-82
2023/05/27 07:51:23;;;;;;;5.25;1.48;;;;;;;;;;4967214;28;98982;-81
2023/05/27 07:53:50;;;;;;;6.03;1.60;;;;;;;;;;4966122;28;101928;-81
2023/05/27 07:56:20;;;;;;;7.25;1.85;;;;;;;;;;4973089;28;98112;-82
2023/05/27 07:58:47;;;;;;;5.50;1.90;;;;;;;;;;4950613;28;100270;-81
2023/05/27 08:01:14;;;;;;;3.30;1.45;;;;;;;;;;4966003;28;98491;-81
2023/05/27 08:03:47;;;;;;;5.43;1.40;;;;;;;;;;4947419;28;101028;-82
2023/05/27 08:06:26;;;;;;;;;;;;;;;;;;4970172;28;101795;-81
2023/05/27 08:08:56;;;;;;;5.72;1.58;;;;;;;;;;4979685;28;98481;-81
2023/05/27 08:11:54;;;;;;;4.45;1.50;;;;;;;;;;4973134;28;100238;-82
2023/05/27 08:14:24;;;;;;;5.70;1.45;;;;;;;;;;4967359;28;98438;-82
2023/05/27 08:17:10;;;;;;;5.50;1.52;;;;;;;;;;4976044;28;98463;-81
2023/05/27 08:19:51;;;;;;;5.05;1.63;;;;;;;;;;4980149;28;98858;-82
2023/05/27 08:22:47;;;;;;;6.10;1.73;;;;;;;;;;4953736;28;97745;-82
2023/05/27 08:25:36;;;;;;;6.53;1.73;;;;;;;;;;4962825;28;98467;-82
2023/05/27 08:28:23;;;;;;;4.88;1.48;;;;;;;;;;4969760;28;99053;-82
2023/05/27 08:30:52;;;;;;;3.85;1.38;;;;;;;;;;4968065;28;99209;-82
2023/05/27 08:33:23;;;;;;;4.32;1.30;;;;;;;;;;4969213;28;102291;-81
2023/05/27 08:35:49;;;;;;;5.22;1.50;;;;;;;;;;4974632;28;100102;-81
2023/05/27 08:38:16;;;;;;;5.68;1.52;;;;;;;;;;4950589;28;98624;-82
2023/05/27 08:40:43;;;;;;;4.82;1.85;;;;;;;;;;4959962;28;101200;-80
2023/05/27 08:43:10;;;;;;;6.45;1.70;;;;;;;;;;4968757;28;98887;-82
2023/05/27 08:45:40;;;;;;;4.20;1.40;;;;;;;;;;4966772;28;101557;-82
2023/05/27 08:48:10;;;;;;;5.43;1.60;;;;;;;;;;4971458;28;98290;-81
2023/05/27 08:50:38;;;;;;;4.78;1.50;;;;;;;;;;4973669;28;98571;-81
2023/05/27 08:53:05;;;;;;;4.88;1.60;;;;;;;;;;4970288;28;101250;-82
2023/05/27 08:55:32;;;;;;;3.95;1.48;;;;;;;;;;4971253;28;102887;-82
2023/05/27 08:58:01;;;;;;;2.75;1.33;;;;;;;;;;4966446;28;98967;-82
2023/05/27 09:00:31;;;;;;;5.95;1.52;;;;;;;;;;4959910;28;101472;-82
2023/05/27 09:03:08;;;;;;;5.85;1.70;;;;;;;;;;4970414;28;103804;-82
2023/05/27 09:05:36;;;;;;;6.10;1.52;;;;;;;;;;4966115;28;101199;-83
2023/05/27 09:08:03;;;;;;;4.35;1.40;;;;;;;;;;4964311;28;99015;-82
2023/05/27 09:10:39;;;;;;;4.68;1.45;;;;;;;;;;4965362;28;99450;-82
2023/05/27 09:13:06;;;;;;;4.88;1.40;;;;;;;;;;4961458;28;103445;-81
2023/05/27 09:15:33;;;;;;;4.30;1.35;;;;;;;;;;4964304;28;100125;-80
2023/05/27 09:17:59;;;;;;;4.72;1.50;;;;;;;;;;4964999;28;99816;-82
2023/05/27 09:20:27;;;;;;;6.10;1.80;;;;;;;;;;4966351;28;99350;-82
2023/05/27 09:22:57;;;;;;;5.57;1.50;;;;;;;;;;4965110;28;99309;-83
2023/05/27 09:25:25;;;;;;;4.47;1.50;;;;;;;;;;4969940;28;98604;-82
2023/05/27 09:27:52;;;;;;;3.95;1.30;;;;;;;;;;4965869;28;101429;-82
2023/05/27 09:30:21;;;;;;;5.65;1.67;;;;;;;;;;4967314;28;98506;-82
2023/05/27 09:32:48;;;;;;;5.47;1.40;;;;;;;;;;4965719;28;99321;-82
2023/05/27 09:35:15;;;;;;;4.63;1.45;;;;;;;;;;4965902;28;101554;-82
2023/05/27 09:37:43;;;;;;;4.13;1.45;;;;;;;;;;4967302;28;98403;-82
2023/05/27 09:40:12;;;;;;;5.72;1.50;;;;;;;;;;4961082;28;98629;-82
2023/05/27 09:42:42;;;;;;;3.83;1.42;;;;;;;;;;4957337;28;99327;-82
2023/05/27 09:45:13;;;;;;;4.28;1.50;;;;;;;;;;4956327;28;99755;-82
2023/05/27 09:47:40;;;;;;;3.90;1.33;;;;;;;;;;4968973;28;100155;-82
2023/05/27 09:50:09;;;;;;;5.50;1.63;;;;;;;;;;4965945;28;98648;-83
2023/05/27 09:52:37;;;;;;;4.40;1.40;;;;;;;;;;4965329;28;99783;-82
2023/05/27 09:55:13;;;;;;;3.72;1.30;;;;;;;;;;4964204;28;99070;-82
2023/05/27 09:57:40;;;;;;;4.55;1.60;;;;;;;;;;4966129;28;99012;-83
2023/05/27 10:00:17;;;;;;;3.88;1.30;;;;;;;;;;4966688;28;99262;-82
2023/05/27 10:02:48;;;;;;;5.07;1.80;;;;;;;;;;4951129;28;98269;-83
2023/05/27 10:05:15;;;;;;;6.95;1.60;;;;;;;;;;4947390;28;98872;-81
2023/05/27 10:07:45;;;;;;;4.57;1.52;;;;;;;;;;4947147;28;98837;-81
2023/05/27 10:10:32;;;;;;;5.47;1.50;;;;;;;;;;4977895;28;100898;-82
2023/05/27 10:12:59;;;;;;;6.60;1.83;;;;;;;;;;4961360;28;99453;-82
2023/05/27 10:15:29;;;;;;;3.63;1.52;;;;;;;;;;4966807;28;99392;-83
2023/05/27 10:17:57;;;;;;;4.05;1.25;;;;;;;;;;4966127;28;98606;-83
2023/05/27 10:20:33;;;;;;;5.00;1.48;;;;;;;;;;4966581;28;99744;-82
2023/05/27 10:23:13;;;;;;;3.58;1.50;;;;;;;;;;4966015;28;104610;-82
2023/05/27 10:25:45;;;;;;;3.40;1.50;;;;;;;;;;4961973;28;98706;-83
2023/05/27 10:28:22;;;;;;;3.63;1.30;;;;;;;;;;4960983;28;98768;-83
2023/05/27 10:30:49;;;;;;;5.88;1.50;;;;;;;;;;4964533;28;100212;-82
2023/05/27 10:33:16;;;;;;;5.00;1.40;;;;;;;;;;4969168;28;98538;-82
2023/05/27 10:35:43;;;;;;;5.30;1.70;;;;;;;;;;4944893;28;101183;-82
2023/05/27 10:38:13;;;;;;;4.38;1.50;;;;;;;;;;4956452;28;98731;-82
2023/05/27 10:40:40;;;;;;;4.47;1.50;;;;;;;;;;4959671;28;102096;-83
2023/05/27 10:43:14;;;;;;;4.45;1.60;;;;;;;;;;4966006;28;99428;-83
2023/05/27 10:45:41;;;;;;;4.43;1.40;;;;;;;;;;4966130;28;98711;-83
2023/05/27 10:48:20;;;;;;;4.95;1.45;;;;;;;;;;4967094;28;100901;-83
2023/05/27 10:50:50;;;;;;;3.17;1.40;;;;;;;;;;4964794;28;99310;-82
2023/05/27 10:53:23;;;;;;;5.63;1.60;;;;;;;;;;4963554;28;97822;-83
2023/05/27 10:55:52;;;;;;;5.30;1.50;;;;;;;;;;4963942;28;99418;-82
2023/05/27 10:58:20;;;;;;;3.65;1.48;;;;;;;;;;4957315;28;105247;-83
2023/05/27 11:00:47;;;;;;;3.88;1.45;;;;;;;;;;4975957;28;99159;-83
2023/05/27 11:03:19;;;;;;;5.15;1.63;;;;;;;;;;4967532;28;99357;-82
2023/05/27 11:05:46;;;;;;;4.57;1.77;;;;;;;;;;4954126;28;98494;-82
2023/05/27 11:08:13;;;;;;;5.30;1.60;;;;;;;;;;4949649;28;99472;-81
2023/05/27 11:10:40;;;;;;;6.22;1.70;;;;;;;;;;4954306;28;99452;-81
2023/05/27 11:13:07;;;;;;;;;;;;;;;;;;4965455;28;98517;-83
2023/05/27 11:15:39;;;;;;;3.90;1.35;;;;;;;;;;4951222;28;99208;-83
2023/05/27 11:18:09;;;;;;;4.53;1.30;;;;;;;;;;4944821;28;97859;-83
2023/05/27 11:20:36;;;;;;;4.20;1.30;;;;;;;;;;4944730;28;98723;-82
2023/05/27 11:23:03;;;;;;;4.07;1.38;;;;;;;;;;4956682;28;99276;-84
2023/05/27 11:25:40;;;;;;;5.50;1.40;;;;;;;;;;4955327;28;100648;-83
2023/05/27 11:28:13;;;;;;;5.18;1.50;;;;;;;;;;4965832;28;99440;-82
2023/05/27 11:30:40;;;;;;;3.67;1.30;;;;;;;;;;4962783;28;100604;-83
2023/05/27 11:33:06;;;;;;;5.78;1.50;;;;;;;;;;4965089;28;98812;-83
2023/05/27 11:35:45;;;;;;;3.83;1.45;;;;;;;;;;4950961;28;99867;-84
2023/05/27 11:38:18;;;;;;;3.45;1.30;;;;;;;;;;4958588;28;101360;-82
2023/05/27 11:40:44;;;;;;;3.58;1.40;;;;;;;;;;4954125;28;98808;-82
2023/05/27 11:43:16;;;;;;;3.22;1.30;;;;;;;;;;4965179;28;98389;-82
2023/05/27 11:45:43;;;;;;;5.60;1.30;;;;;;;;;;4962965;28;98715;-82
2023/05/27 11:48:09;;;;;;;4.28;1.67;;;;;;;;;;4965683;28;99371;-83
2023/05/27 11:50:36;;;;;;;3.88;1.40;;;;;;;;;;4956161;28;99793;-82
2023/05/27 11:53:03;;;;;;;4.53;1.35;;;;;;;;;;4963963;28;98568;-82
2023/05/27 11:55:30;;;;;;;5.20;1.63;;;;;;;;;;4967512;28;101182;-83
2023/05/27 11:57:56;;;;;;;4.25;1.55;;;;;;;;;;4949959;28;99144;-83
2023/05/27 12:00:23;;;;;;;4.50;1.50;;;;;;;;;;4956794;28;98569;-82
2023/05/27 12:02:50;;;;;;;4.00;1.50;;;;;;;;;;4964175;28;99978;-82
2023/05/27 12:05:16;;;;;;;4.35;1.40;;;;;;;;;;4964517;28;98646;-83
2023/05/27 12:08:00;;;;;;;5.82;1.55;;;;;;;;;;4964261;28;103259;-81
2023/05/27 12:10:27;;;;;;;4.53;1.45;;;;;;;;;;4964075;28;99975;-83
2023/05/27 12:13:01;;;;;;;5.47;1.60;;;;;;;;;;4951178;28;98593;-82
2023/05/27 12:15:28;;;;;;;4.38;1.40;;;;;;;;;;4965361;28;99367;-82
2023/05/27 12:17:54;;;;;;;4.10;1.40;;;;;;;;;;4965076;28;99211;-82
2023/05/27 12:20:21;;;;;;;3.83;1.40;;;;;;;;;;4963506;28;98829;-82
2023/05/27 12:22:48;;;;;;;3.90;1.40;;;;;;;;;;4968023;28;98729;-82
2023/05/27 12:25:14;;;;;;;4.20;1.35;;;;;;;;;;4962420;28;98582;-81
2023/05/27 12:27:41;;;;;;;4.60;1.42;;;;;;;;;;4965685;28;99781;-83
2023/05/27 12:30:07;;;;;;;3.92;1.33;;;;;;;;;;4964923;28;101263;-82
2023/05/27 12:32:34;;;;;;;4.35;1.67;;;;;;;;;;4958183;28;98385;-80
2023/05/27 12:35:01;;;;;;;2.90;1.42;;;;;;;;;;4949308;28;98655;-82
2023/05/27 12:37:27;;;;;;;3.53;1.40;;;;;;;;;;4945005;28;99363;-82
2023/05/27 12:39:54;;;;;;;4.25;1.60;;;;;;;;;;4948675;28;99347;-82
2023/05/27 12:42:21;;;;;;;5.10;1.60;;;;;;;;;;4967267;28;99467;-82
2023/05/27 12:44:47;;;;;;;4.05;1.40;;;;;;;;;;4965392;28;98927;-82
2023/05/27 12:47:14;;;;;;;3.10;1.30;;;;;;;;;;4954600;28;98941;-83
2023/05/27 12:49:42;;;;;;;4.57;1.40;;;;;;;;;;4964258;28;99026;-84
2023/05/27 12:52:09;;;;;;;3.67;1.45;;;;;;;;;;4973960;28;98888;-83
2023/05/27 12:54:35;;;;;;;4.25;1.40;;;;;;;;;;4971429;28;98530;-82
2023/05/27 12:57:04;;;;;;;4.00;1.60;;;;;;;;;;4963384;28;99103;-82
2023/05/27 12:59:32;;;;;;;3.92;1.60;;;;;;;;;;4970223;28;98663;-82
2023/05/27 13:01:59;;;;;;;4.88;1.40;;;;;;;;;;4975467;28;99707;-82
2023/05/27 13:04:26;;;;;;;4.30;1.30;;;;;;;;;;4974048;28;99490;-83
2023/05/27 13:06:53;;;;;;;4.82;1.60;;;;;;;;;;4967816;28;100262;-83
2023/05/27 13:09:19;;;;;;;3.88;1.25;;;;;;;;;;4958510;28;99910;-82
2023/05/27 13:11:47;;;;;;;4.30;1.60;;;;;;;;;;4962310;28;98582;-82
2023/05/27 13:14:14;;;;;;;4.47;1.70;;;;;;;;;;4946395;28;99491;-82
2023/05/27 13:16:41;;;;;;;3.33;1.33;;;;;;;;;;4961442;28;99090;-82
2023/05/27 13:19:07;;;;;;;4.13;1.30;;;;;;;;;;4951453;28;98737;-82
2023/05/27 13:21:35;;;;;;;3.38;1.40;;;;;;;;;;4950262;28;99855;-83
2023/05/27 13:24:02;;;;;;;3.58;1.42;;;;;;;;;;4959604;28;99329;-83
2023/05/27 13:26:30;;;;;;;3.53;1.40;;;;;;;;;;4976444;28;99912;-83
2023/05/27 13:28:57;;;;;;;4.55;1.50;;;;;;;;;;4960342;28;99890;-83
2023/05/27 13:31:24;;;;;;;4.30;1.55;;;;;;;;;;4961549;28;98595;-83
2023/05/27 13:33:50;;;;;;;5.30;1.42;;;;;;;;;;4957144;28;101921;-82
2023/05/27 13:36:17;;;;;;;3.63;1.60;;;;;;;;;;4966065;28;101857;-83
2023/05/27 13:38:43;;;;;;;3.78;1.40;;;;;;;;;;4962307;28;99682;-84
2023/05/27 13:41:10;;;;;;;5.10;1.40;;;;;;;;;;4958954;28;101770;-83
2023/05/27 13:43:36;;;;;;;4.43;1.50;;;;;;;;;;4966115;28;100825;-84
2023/05/27 13:46:03;;;;;;;3.15;1.30;;;;;;;;;;4968562;28;97786;-83
2023/05/27 13:48:30;;;;;;;3.75;1.60;;;;;;;;;;4971355;28;99029;-83
2023/05/27 13:50:57;;;;;;;4.40;1.70;;;;;;;;;;4966010;28;98656;-83
2023/05/27 13:53:24;;;;;;;5.30;1.55;;;;;;;;;;4967338;28;99328;-83
2023/05/27 13:55:50;;;;;;;3.60;1.42;;;;;;;;;;4967627;28;99144;-83
2023/05/27 13:58:18;;;;;;;3.60;1.45;;;;;;;;;;4966058;28;99155;-83
2023/05/27 14:00:44;;;;;;;3.97;1.52;;;;;;;;;;4965600;28;99371;-83
2023/05/27 14:03:11;;;;;;;3.72;1.50;;;;;;;;;;4966968;28;99724;-83
2023/05/27 14:05:38;;;;;;;4.50;1.40;;;;;;;;;;4967349;28;98561;-83
2023/05/27 14:08:05;;;;;;;4.38;1.67;;;;;;;;;;4951246;28;99064;-83
2023/05/27 14:10:32;;;;;;;5.78;1.70;;;;;;;;;;4969493;28;99492;-84
2023/05/27 14:12:59;;;;;;;3.60;1.40;;;;;;;;;;4951609;28;102321;-83
2023/05/27 14:15:28;;;;;;;4.53;1.50;;;;;;;;;;4947294;28;99082;-83
2023/05/27 14:17:55;;;;;;;4.20;1.45;;;;;;;;;;4963593;28;99726;-83
2023/05/27 14:20:22;;;;;;;5.15;1.58;;;;;;;;;;4953857;28;100027;-84
2023/05/27 14:22:48;;;;;;;3.28;1.40;;;;;;;;;;4965609;28;100350;-82
2023/05/27 14:25:15;;;;;;;4.88;1.60;;;;;;;;;;4959692;28;98823;-83
2023/05/27 14:27:41;;;;;;;3.95;1.50;;;;;;;;;;4964676;28;100211;-83
2023/05/27 14:30:08;;;;;;;4.00;1.50;;;;;;;;;;4963957;28;98475;-83
2023/05/27 14:32:35;;;;;;;5.43;1.60;;;;;;;;;;4950329;28;98720;-81
2023/05/27 14:35:01;;;;;;;4.07;1.58;;;;;;;;;;4965941;28;98488;-83
2023/05/27 14:37:28;;;;;;;2.85;1.45;;;;;;;;;;4966449;28;99088;-83
2023/05/27 14:39:55;;;;;;;4.55;1.50;;;;;;;;;;4966872;28;99904;-83
2023/05/27 14:42:22;;;;;;;3.40;1.50;;;;;;;;;;4967132;28;100396;-84
2023/05/27 14:44:49;;;;;;;3.67;1.60;;;;;;;;;;4967135;28;98479;-83
2023/05/27 14:47:15;;;;;;;4.22;1.67;;;;;;;;;;4968067;28;98906;-83
2023/05/27 14:49:43;;;;;;;4.88;1.40;;;;;;;;;;4967376;28;99595;-84